Time;durP1;ratioP1;P1;durP2;ratioP2;P2;SDS_P1;SDS_P2;PMS_P1;PMS_P2;Temp;Humidity;BMP_temperature;BMP_pressure;BME280_temperature;BME280_humidity;BME280_pressure;Samples;Min_cycle;Max_cycle;Signal;HPM_P1;HPM_P2
2022/08/14 00:01:07;;;;;;;9.98;8.93;;;20.70;99.90;;;;;;5037421;28;20124;-67
2022/08/14 00:03:33;;;;;;;14.20;9.20;;;20.70;99.90;;;;;;5043977;28;20128;-68
2022/08/14 00:06:01;;;;;;;9.90;8.90;;;20.70;99.90;;;;;;5045343;28;20349;-68
2022/08/14 00:08:27;;;;;;;11.70;9.25;;;20.70;99.90;;;;;;5040044;28;20037;-68
2022/08/14 00:10:53;;;;;;;13.18;9.57;;;20.60;99.90;;;;;;5061642;28;20056;-68
2022/08/14 00:13:22;;;;;;;10.75;9.00;;;20.60;99.90;;;;;;5043278;28;20055;-68
2022/08/14 00:15:49;;;;;;;11.48;9.40;;;20.60;99.90;;;;;;5033720;28;20038;-68
2022/08/14 00:18:19;;;;;;;14.82;9.60;;;20.60;99.90;;;;;;5049180;28;20094;-68
2022/08/14 00:20:44;;;;;;;12.02;9.75;;;20.50;99.90;;;;;;5038652;28;20044;-68
2022/08/14 00:23:12;;;;;;;13.85;10.10;;;20.50;99.90;;;;;;5038072;28;20299;-69
2022/08/14 00:25:38;;;;;;;16.80;10.10;;;20.50;99.90;;;;;;5037968;28;20049;-68
2022/08/14 00:28:07;;;;;;;12.32;9.50;;;20.40;99.90;;;;;;5033208;28;20119;-67
2022/08/14 00:30:33;;;;;;;12.57;10.32;;;20.40;99.90;;;;;;5037664;28;20048;-68
2022/08/14 00:32:59;;;;;;;12.30;9.75;;;20.40;99.90;;;;;;5032545;28;20037;-67
2022/08/14 00:35:24;;;;;;;13.60;10.48;;;20.40;99.90;;;;;;5035072;28;20051;-68
2022/08/14 00:37:51;;;;;;;12.27;10.20;;;20.40;99.90;;;;;;5032501;28;20502;-68
2022/08/14 00:40:18;;;;;;;11.95;9.43;;;20.40;99.90;;;;;;5036641;28;20052;-68
2022/08/14 00:42:44;;;;;;;11.55;10.32;;;20.40;99.90;;;;;;5047921;28;20117;-69
2022/08/14 00:45:12;;;;;;;14.20;9.93;;;20.30;99.90;;;;;;5037532;28;20083;-68
2022/08/14 00:47:40;;;;;;;13.70;10.82;;;20.40;99.90;;;;;;5032682;28;20045;-68
2022/08/14 00:50:08;;;;;;;12.77;10.05;;;20.30;99.90;;;;;;5034694;28;20650;-69
2022/08/14 00:52:34;;;;;;;11.68;9.90;;;20.30;99.90;;;;;;5031121;28;20044;-69
2022/08/14 00:55:01;;;;;;;13.02;10.70;;;20.30;99.90;;;;;;5039333;28;20044;-69
2022/08/14 00:57:29;;;;;;;14.05;10.82;;;20.30;99.90;;;;;;5039689;28;20056;-68
2022/08/14 00:59:56;;;;;;;11.07;9.70;;;20.30;99.90;;;;;;5044089;28;20496;-68
2022/08/14 01:02:25;;;;;;;13.20;10.10;;;20.20;99.90;;;;;;5054788;28;20048;-68
2022/08/14 01:04:53;;;;;;;12.30;10.43;;;20.20;99.90;;;;;;5037281;28;20204;-68
2022/08/14 01:07:20;;;;;;;14.30;11.07;;;20.20;99.90;;;;;;5038133;28;20071;-68
2022/08/14 01:10:00;;;;;;;13.82;10.45;;;20.20;99.90;;;;;;5038690;28;20484;-68
2022/08/14 01:12:27;;;;;;;12.27;10.70;;;20.10;99.90;;;;;;5057660;28;20041;-69
2022/08/14 01:14:54;;;;;;;11.98;10.63;;;20.10;99.90;;;;;;5033611;28;20472;-68
2022/08/14 01:21:02;;;;;;;12.60;10.63;;;20.10;99.90;;;;;;5034507;28;20146;-68
2022/08/14 01:22:54;;;;;;;13.00;10.65;;;20.10;99.90;;;;;;5031581;28;20052;-68
2022/08/14 01:25:21;;;;;;;16.65;11.45;;;20.10;99.90;;;;;;5040486;28;20045;-68
2022/08/14 01:27:47;;;;;;;13.57;11.70;;;20.10;99.90;;;;;;5038981;28;20052;-68
2022/08/14 01:30:13;;;;;;;13.23;10.65;;;20.10;99.90;;;;;;5034427;28;20037;-68
2022/08/14 01:32:38;;;;;;;14.80;10.98;;;20.10;99.90;;;;;;5039621;28;20060;-68
2022/08/14 01:35:06;;;;;;;13.27;11.88;;;20.00;99.90;;;;;;5033212;28;20040;-68
2022/08/14 01:37:32;;;;;;;13.93;11.43;;;20.00;99.90;;;;;;5034295;28;20068;-67
2022/08/14 01:39:59;;;;;;;13.73;11.00;;;20.00;99.90;;;;;;5040018;28;20484;-69
2022/08/14 01:42:28;;;;;;;13.60;10.57;;;20.00;99.90;;;;;;5040601;28;20124;-69
2022/08/14 01:44:56;;;;;;;12.55;11.02;;;20.00;99.90;;;;;;5036778;28;20167;-68
2022/08/14 01:47:22;;;;;;;14.10;11.27;;;20.00;99.90;;;;;;5037051;28;20072;-68
2022/08/14 01:49:53;;;;;;;13.70;11.32;;;20.00;99.90;;;;;;5035641;28;20430;-69
2022/08/14 01:52:20;;;;;;;15.27;11.45;;;19.90;99.90;;;;;;5040197;28;20033;-68
2022/08/14 01:54:46;;;;;;;15.27;11.77;;;19.90;99.90;;;;;;5058661;28;20369;-68
2022/08/14 01:57:12;;;;;;;14.02;11.43;;;19.80;99.90;;;;;;5040678;28;20041;-69
2022/08/14 01:59:39;;;;;;;15.65;11.55;;;19.80;99.90;;;;;;5040096;28;20492;-67
2022/08/14 02:02:13;;;;;;;16.25;11.43;;;19.80;99.90;;;;;;5043382;28;20564;-68
2022/08/14 02:04:40;;;;;;;13.75;10.98;;;19.80;99.90;;;;;;5040695;28;20561;-68
2022/08/14 02:07:08;;;;;;;15.38;11.98;;;19.80;99.90;;;;;;5041226;28;20098;-66
2022/08/14 02:09:37;;;;;;;13.88;11.05;;;19.80;99.90;;;;;;5039240;28;20037;-67
2022/08/14 02:12:04;;;;;;;12.30;11.02;;;19.70;99.90;;;;;;5044391;28;20198;-67
2022/08/14 02:14:30;;;;;;;12.25;11.02;;;19.70;99.90;;;;;;5050997;28;20103;-66
2022/08/14 02:16:56;;;;;;;14.00;11.32;;;19.70;99.90;;;;;;5039071;28;20045;-67
2022/08/14 02:19:26;;;;;;;15.43;11.32;;;19.60;99.90;;;;;;5035840;28;20063;-68
2022/08/14 02:21:56;;;;;;;14.40;10.90;;;19.60;99.90;;;;;;5041003;28;20048;-67
2022/08/14 02:24:24;;;;;;;12.52;11.23;;;19.60;99.90;;;;;;5043735;28;20044;-67
2022/08/14 02:26:52;;;;;;;13.50;10.70;;;19.60;99.90;;;;;;5037696;28;20052;-67
2022/08/14 02:29:21;;;;;;;12.55;10.73;;;19.50;99.90;;;;;;5047728;28;20029;-68
2022/08/14 02:31:51;;;;;;;17.33;10.93;;;19.50;99.90;;;;;;5040450;28;20418;-68
2022/08/14 02:34:28;;;;;;;14.55;10.68;;;19.50;99.90;;;;;;5048464;28;20037;-67
2022/08/14 02:37:04;;;;;;;13.85;10.88;;;19.50;99.90;;;;;;5043023;28;20132;-68
2022/08/14 02:39:30;;;;;;;12.32;10.70;;;19.40;99.90;;;;;;5044586;28;20047;-67
2022/08/14 02:41:57;;;;;;;13.65;11.20;;;19.40;99.90;;;;;;5062903;28;20025;-67
2022/08/14 02:44:23;;;;;;;11.85;10.52;;;19.40;99.90;;;;;;5046900;28;20037;-67
2022/08/14 02:46:52;;;;;;;14.05;10.80;;;19.30;99.90;;;;;;5047326;28;20044;-67
2022/08/14 02:49:27;;;;;;;14.35;11.23;;;19.40;99.90;;;;;;5046689;28;20087;-67
2022/08/14 02:51:54;;;;;;;14.05;11.05;;;19.40;99.90;;;;;;5047363;28;20041;-67
2022/08/14 02:54:25;;;;;;;12.23;10.75;;;19.30;99.90;;;;;;5026951;28;20080;-68
2022/08/14 02:56:53;;;;;;;15.00;11.50;;;19.30;99.90;;;;;;5041461;28;20103;-67
2022/08/14 02:59:20;;;;;;;11.93;10.70;;;19.30;99.90;;;;;;5058827;28;20033;-67
2022/08/14 03:01:46;;;;;;;13.02;10.82;;;19.30;99.90;;;;;;5046325;28;20036;-67
2022/08/14 03:04:13;;;;;;;13.02;11.70;;;19.30;99.90;;;;;;5048012;28;20400;-67
2022/08/14 03:06:42;;;;;;;12.93;11.35;;;19.20;99.90;;;;;;5043871;28;20076;-67
2022/08/14 03:09:10;;;;;;;14.80;11.25;;;19.20;99.90;;;;;;5042565;28;20033;-67
2022/08/14 03:11:36;;;;;;;14.75;11.57;;;19.20;99.90;;;;;;5043306;28;20071;-66
2022/08/14 03:14:03;;;;;;;13.07;11.60;;;19.20;99.90;;;;;;5042477;28;20067;-68
2022/08/14 03:16:34;;;;;;;14.18;11.45;;;19.20;99.90;;;;;;5041737;28;20582;-66
2022/08/14 03:19:02;;;;;;;14.40;11.77;;;19.10;99.90;;;;;;5037787;28;20075;-67
2022/08/14 03:21:30;;;;;;;13.32;11.88;;;19.10;99.90;;;;;;5039686;28;20051;-67
2022/08/14 03:24:21;;;;;;;14.85;12.40;;;19.10;99.90;;;;;;5040671;28;20060;-66
2022/08/14 03:26:45;;;;;;;13.40;11.68;;;19.10;99.90;;;;;;5039848;28;20040;-67
2022/08/14 03:29:14;;;;;;;14.55;11.38;;;19.10;99.90;;;;;;5045621;28;20051;-68
2022/08/14 03:31:40;;;;;;;15.93;11.90;;;19.10;99.90;;;;;;5050368;28;20491;-69
2022/08/14 03:34:09;;;;;;;13.95;12.27;;;19.00;99.90;;;;;;5062953;28;20186;-67
2022/08/14 03:36:35;;;;;;;17.88;11.93;;;19.00;99.90;;;;;;5040808;28;20403;-68
2022/08/14 03:39:03;;;;;;;16.38;11.90;;;19.00;99.90;;;;;;5056197;28;20045;-67
2022/08/14 03:41:31;;;;;;;16.13;11.73;;;19.00;99.90;;;;;;5046743;28;20068;-66
2022/08/14 03:44:00;;;;;;;13.85;11.75;;;18.90;99.90;;;;;;5041171;28;20104;-67
2022/08/14 03:46:31;;;;;;;13.63;11.88;;;18.90;99.90;;;;;;5040662;28;20053;-68
2022/08/14 03:48:57;;;;;;;13.20;11.80;;;18.90;99.90;;;;;;5035289;28;20037;-68
2022/08/14 03:51:27;;;;;;;14.82;12.55;;;18.90;99.90;;;;;;5048662;28;20071;-68
2022/08/14 03:53:58;;;;;;;14.63;12.32;;;18.90;99.90;;;;;;5045166;28;20041;-68
2022/08/14 03:56:25;;;;;;;13.90;11.98;;;18.90;99.90;;;;;;5059859;28;20077;-68
2022/08/14 03:58:54;;;;;;;14.75;12.48;;;18.90;99.90;;;;;;5042768;28;20049;-68
2022/08/14 04:01:22;;;;;;;16.30;12.57;;;18.80;99.90;;;;;;5060100;28;20040;-68
2022/08/14 04:03:50;;;;;;;15.60;12.75;;;18.70;99.90;;;;;;5044989;28;20490;-68
2022/08/14 04:06:19;;;;;;;17.52;12.75;;;18.70;99.90;;;;;;5043915;28;20750;-68
2022/08/14 04:08:44;;;;;;;16.27;12.02;;;18.60;99.90;;;;;;5034286;28;20175;-68
2022/08/14 04:11:10;;;;;;;14.85;12.40;;;18.50;99.90;;;;;;5045647;28;20124;-68
2022/08/14 04:13:39;;;;;;;15.75;12.55;;;18.50;99.90;;;;;;5060170;28;20120;-68
2022/08/14 04:16:10;;;;;;;14.30;11.73;;;18.50;99.90;;;;;;5025571;28;20197;-68
2022/08/14 04:18:45;;;;;;;14.57;12.27;;;18.50;99.90;;;;;;5043829;28;20059;-68
2022/08/14 04:21:12;;;;;;;14.65;12.85;;;18.40;99.90;;;;;;5046391;28;20049;-68
2022/08/14 04:23:39;;;;;;;18.05;13.52;;;18.40;99.90;;;;;;5055774;28;20127;-68
2022/08/14 04:26:09;;;;;;;17.33;13.40;;;18.40;99.90;;;;;;5043604;28;20053;-68
2022/08/14 04:28:36;;;;;;;15.82;13.20;;;18.40;99.90;;;;;;5060389;28;20037;-68
2022/08/14 04:31:03;;;;;;;15.00;13.07;;;18.50;99.90;;;;;;5043337;28;20037;-68
2022/08/14 04:33:29;;;;;;;15.00;13.18;;;18.50;99.90;;;;;;5029628;28;20738;-68
2022/08/14 04:35:55;;;;;;;15.77;12.63;;;18.50;99.90;;;;;;5036973;28;20033;-68
2022/08/14 04:43:50;;;;;;;16.45;13.40;;;18.50;99.90;;;;;;5035273;28;20526;-68
2022/08/14 04:46:19;;;;;;;20.05;13.70;;;18.50;99.90;;;;;;5034734;28;20068;-68
2022/08/14 04:48:45;;;;;;;15.90;13.27;;;18.50;99.90;;;;;;5036743;28;20483;-68
2022/08/14 04:51:12;;;;;;;16.20;13.13;;;18.50;99.90;;;;;;5041854;28;20099;-67
2022/08/14 04:53:42;;;;;;;17.30;12.95;;;18.50;99.90;;;;;;5039773;28;20041;-68
2022/08/14 04:56:09;;;;;;;15.82;13.32;;;18.50;99.90;;;;;;5038487;28;20032;-68
2022/08/14 04:58:35;;;;;;;18.23;13.38;;;18.50;99.90;;;;;;5036866;28;20124;-67
2022/08/14 05:01:04;;;;;;;20.00;14.20;;;18.50;99.90;;;;;;5035306;28;20515;-67
2022/08/14 05:03:33;;;;;;;15.98;13.48;;;18.60;99.90;;;;;;5035368;28;20044;-67
2022/08/14 05:06:00;;;;;;;18.00;12.95;;;18.60;99.90;;;;;;5034096;28;20395;-68
2022/08/14 05:08:27;;;;;;;17.45;13.73;;;18.60;99.90;;;;;;5033642;28;20417;-68
2022/08/14 05:10:55;;;;;;;15.27;13.02;;;18.70;99.90;;;;;;5037480;28;20051;-68
2022/08/14 05:13:25;;;;;;;17.58;12.93;;;18.70;99.90;;;;;;5038888;28;20164;-68
2022/08/14 05:15:52;;;;;;;14.30;12.80;;;18.70;99.90;;;;;;5047588;28;20041;-68
2022/08/14 05:18:23;;;;;;;15.20;13.60;;;18.80;99.90;;;;;;5035300;28;20432;-68
2022/08/14 05:20:52;;;;;;;17.35;13.80;;;18.80;99.90;;;;;;5035253;28;20372;-67
2022/08/14 05:23:24;;;;;;;17.65;12.93;;;18.90;99.90;;;;;;5048992;28;20063;-68
2022/08/14 05:25:54;;;;;;;17.70;12.80;;;18.90;99.90;;;;;;5031582;28;20044;-68
2022/08/14 05:28:22;;;;;;;16.27;12.85;;;19.00;99.90;;;;;;5035279;28;20045;-66
2022/08/14 05:30:58;;;;;;;16.58;13.27;;;19.10;99.90;;;;;;5038241;28;20045;-67
2022/08/14 05:33:27;;;;;;;14.98;12.98;;;19.20;99.90;;;;;;5058969;28;20075;-67
2022/08/14 05:36:00;;;;;;;15.98;13.38;;;19.20;99.90;;;;;;5040377;28;20061;-68
2022/08/14 05:38:32;;;;;;;16.10;14.35;;;19.30;99.90;;;;;;5041340;28;21266;-68
2022/08/14 05:41:02;;;;;;;16.80;13.32;;;19.40;99.90;;;;;;5042478;28;20069;-67
2022/08/14 05:43:29;;;;;;;18.08;14.00;;;19.50;99.90;;;;;;5038792;28;20727;-68
2022/08/14 05:45:56;;;;;;;17.75;13.43;;;19.50;99.90;;;;;;5052075;28;20049;-68
2022/08/14 05:48:23;;;;;;;15.68;13.35;;;19.60;99.90;;;;;;5041787;28;20519;-67
2022/08/14 05:50:50;;;;;;;16.23;13.80;;;19.70;99.90;;;;;;5037411;28;20041;-68
2022/08/14 05:53:16;;;;;;;16.50;13.15;;;19.70;99.90;;;;;;5040022;28;20070;-67
2022/08/14 05:55:41;;;;;;;20.60;13.68;;;19.80;99.90;;;;;;5046690;28;20107;-68
2022/08/14 05:58:07;;;;;;;19.50;14.10;;;19.90;99.90;;;;;;5035996;28;20486;-68
2022/08/14 06:00:35;;;;;;;17.08;13.80;;;20.00;99.90;;;;;;5040213;28;20044;-67
2022/08/14 06:03:03;;;;;;;15.25;12.20;;;20.10;99.90;;;;;;5026281;28;20044;-66
2022/08/14 06:05:29;;;;;;;16.48;13.27;;;20.20;99.90;;;;;;5043769;28;20046;-68
2022/08/14 06:07:57;;;;;;;17.45;12.65;;;20.30;99.90;;;;;;5036590;28;20501;-66
2022/08/14 06:10:23;;;;;;;20.48;12.52;;;20.40;99.90;;;;;;5038796;28;20479;-67
2022/08/14 06:12:48;;;;;;;15.40;12.52;;;20.50;99.90;;;;;;5059002;28;20044;-67
2022/08/14 06:15:14;;;;;;;13.88;12.48;;;20.70;99.90;;;;;;5049207;28;20036;-68
2022/08/14 06:17:43;;;;;;;14.63;12.23;;;20.80;99.90;;;;;;5032445;28;20086;-67
2022/08/14 06:20:09;;;;;;;14.88;11.60;;;20.90;99.90;;;;;;5050403;28;20049;-68
2022/08/14 06:22:35;;;;;;;14.38;11.52;;;21.00;99.90;;;;;;5066523;28;20071;-67
2022/08/14 06:25:01;;;;;;;15.25;11.88;;;21.10;99.90;;;;;;5028671;28;20080;-67
2022/08/14 06:27:26;;;;;;;16.35;11.57;;;21.20;99.90;;;;;;5047525;28;20044;-69
2022/08/14 06:29:52;;;;;;;15.00;11.93;;;21.40;99.90;;;;;;5046424;28;20045;-68
2022/08/14 06:32:17;;;;;;;13.18;11.48;;;21.50;99.90;;;;;;5044979;28;20118;-68
2022/08/14 06:34:43;;;;;;;13.35;11.77;;;21.60;99.90;;;;;;5063623;28;20036;-67
2022/08/14 06:37:09;;;;;;;14.45;11.48;;;21.70;99.90;;;;;;5048757;28;20472;-67
2022/08/14 06:39:34;;;;;;;12.40;10.98;;;21.80;99.90;;;;;;5045572;28;20415;-69
2022/08/14 06:42:00;;;;;;;13.18;10.93;;;21.90;99.90;;;;;;5044787;28;20242;-68
2022/08/14 06:44:27;;;;;;;14.93;11.50;;;22.10;99.90;;;;;;5045696;28;20032;-68
2022/08/14 06:46:52;;;;;;;12.93;11.40;;;22.20;99.90;;;;;;5045499;28;20037;-68
2022/08/14 06:49:18;;;;;;;11.63;10.32;;;22.30;99.90;;;;;;5047749;28;20465;-68
2022/08/14 06:51:45;;;;;;;12.18;10.07;;;22.40;99.90;;;;;;5045294;28;20036;-68
2022/08/14 06:54:12;;;;;;;11.75;10.55;;;22.60;99.90;;;;;;5048122;28;20052;-68
2022/08/14 06:56:38;;;;;;;11.77;10.55;;;22.70;99.90;;;;;;5056589;28;20053;-68
2022/08/14 06:59:04;;;;;;;13.73;11.35;;;22.80;99.90;;;;;;5051073;28;20522;-68
2022/08/14 07:06:58;;;;;;;12.20;9.98;;;23.10;99.90;;;;;;5047611;28;20056;-68
2022/08/14 07:09:23;;;;;;;12.75;10.25;;;23.20;99.90;;;;;;5050466;28;20041;-68
2022/08/14 07:11:50;;;;;;;11.57;10.38;;;23.30;99.90;;;;;;5049482;28;20045;-69
2022/08/14 07:14:16;;;;;;;11.63;10.00;;;23.40;99.90;;;;;;5065440;28;20044;-69
2022/08/14 07:16:42;;;;;;;11.25;10.05;;;23.50;99.90;;;;;;5046030;28;20045;-69
2022/08/14 07:19:08;;;;;;;13.50;10.57;;;23.50;99.90;;;;;;5058621;28;20052;-68
2022/08/14 07:21:35;;;;;;;10.68;9.68;;;23.60;99.90;;;;;;5046557;28;20094;-69
2022/08/14 07:24:01;;;;;;;11.60;9.95;;;23.70;99.90;;;;;;5061525;28;20055;-67
2022/08/14 07:26:27;;;;;;;11.05;9.95;;;23.70;99.90;;;;;;5045579;28;20187;-68
2022/08/14 07:28:53;;;;;;;14.07;10.57;;;23.80;99.90;;;;;;5045027;28;21268;-68
2022/08/14 07:31:18;;;;;;;14.48;9.75;;;23.90;99.90;;;;;;5050225;28;20052;-67
2022/08/14 07:33:47;;;;;;;10.75;9.65;;;24.10;99.90;;;;;;5050469;28;20045;-68
2022/08/14 07:36:14;;;;;;;13.35;10.25;;;24.10;99.90;;;;;;5066072;28;20048;-68
2022/08/14 07:38:40;;;;;;;12.38;10.88;;;24.20;99.90;;;;;;5059649;28;20037;-67
2022/08/14 07:41:08;;;;;;;11.70;10.48;;;24.30;99.90;;;;;;5030516;28;20102;-68
2022/08/14 07:43:34;;;;;;;13.52;10.68;;;24.50;99.90;;;;;;5052751;28;20045;-68
2022/08/14 07:46:00;;;;;;;12.15;10.82;;;24.50;99.90;;;;;;5039647;28;20040;-68
2022/08/14 07:48:25;;;;;;;11.77;9.63;;;24.60;99.90;;;;;;5062060;28;20165;-69
2022/08/14 07:50:52;;;;;;;14.50;10.27;;;24.70;99.90;;;;;;5033349;28;20133;-68
2022/08/14 07:53:18;;;;;;;17.58;10.50;;;24.80;99.90;;;;;;5048487;28;20240;-67
2022/08/14 07:55:47;;;;;;;12.15;10.70;;;24.90;99.90;;;;;;5049892;28;20503;-68
2022/08/14 07:58:16;;;;;;;13.00;10.30;;;24.90;99.90;;;;;;5047946;28;20399;-68
2022/08/14 08:00:42;;;;;;;11.35;10.13;;;25.00;99.90;;;;;;5032933;28;20040;-68
2022/08/14 08:03:11;;;;;;;13.10;10.73;;;25.10;99.90;;;;;;5050055;28;20480;-68
2022/08/14 08:05:39;;;;;;;11.20;9.90;;;25.10;99.90;;;;;;5048180;28;20127;-68
2022/08/14 08:08:06;;;;;;;11.27;10.10;;;25.20;99.90;;;;;;5051234;28;20048;-69
2022/08/14 08:10:31;;;;;;;10.50;9.52;;;25.30;99.90;;;;;;5059303;28;20041;-68
2022/08/14 08:13:00;;;;;;;11.02;9.40;;;25.40;99.90;;;;;;5048685;28;20029;-68
2022/08/14 08:15:27;;;;;;;14.40;10.50;;;25.50;99.90;;;;;;5061147;28;20033;-67
2022/08/14 08:17:53;;;;;;;10.40;9.20;;;25.60;99.90;;;;;;5048990;28;20220;-69
2022/08/14 08:20:24;;;;;;;12.65;9.98;;;25.60;99.90;;;;;;5048157;28;20153;-69
2022/08/14 08:22:50;;;;;;;13.70;9.65;;;25.70;99.90;;;;;;5048218;28;20055;-68
2022/08/14 08:25:19;;;;;;;10.45;9.10;;;25.80;99.90;;;;;;5047345;28;20144;-68
2022/08/14 08:28:08;;;;;;;10.52;9.38;;;25.80;99.90;;;;;;5048756;28;20053;-68
2022/08/14 08:30:36;;;;;;;10.15;9.10;;;25.90;99.90;;;;;;5049087;28;20076;-69
2022/08/14 08:33:04;;;;;;;11.23;9.57;;;26.00;99.90;;;;;;5062364;28;20484;-69
2022/08/14 08:35:33;;;;;;;11.32;9.52;;;26.10;99.90;;;;;;5042767;28;20041;-69
2022/08/14 08:38:06;;;;;;;12.95;9.65;;;26.20;99.90;;;;;;5042358;28;20028;-69
2022/08/14 08:40:35;;;;;;;11.38;8.60;;;26.20;99.90;;;;;;5041294;28;20044;-69
2022/08/14 08:43:02;;;;;;;9.98;8.98;;;26.30;99.90;;;;;;5024844;28;20036;-68
2022/08/14 08:45:28;;;;;;;10.77;9.07;;;26.30;99.90;;;;;;5048332;28;20499;-68
2022/08/14 08:47:54;;;;;;;11.43;8.95;;;26.40;99.90;;;;;;5045394;28;20426;-68
2022/08/14 08:50:28;;;;;;;12.15;9.15;;;26.50;99.90;;;;;;5040807;28;20041;-70
2022/08/14 08:52:56;;;;;;;13.20;8.80;;;26.60;99.90;;;;;;5049231;28;20036;-68
2022/08/14 08:55:42;;;;;;;9.32;7.75;;;26.70;99.90;;;;;;5048882;28;20045;-68
2022/08/14 08:58:10;;;;;;;9.48;8.07;;;26.70;99.90;;;;;;5048608;28;20032;-70
2022/08/14 09:00:37;;;;;;;8.77;7.85;;;26.80;99.90;;;;;;5049134;28;20051;-69
2022/08/14 09:03:14;;;;;;;9.07;8.18;;;26.90;99.90;;;;;;5048379;28;20473;-68
2022/08/14 09:05:51;;;;;;;8.70;7.80;;;26.90;99.90;;;;;;5047496;28;20511;-69
2022/08/14 09:08:25;;;;;;;8.75;7.90;;;27.00;99.90;;;;;;5040981;28;20045;-69
2022/08/14 09:10:52;;;;;;;10.05;8.00;;;27.10;99.90;;;;;;5028385;28;20041;-69
2022/08/14 09:13:19;;;;;;;8.48;7.68;;;27.20;99.90;;;;;;5030117;28;20048;-69
2022/08/14 09:15:47;;;;;;;9.02;8.10;;;27.20;99.90;;;;;;5059461;28;20060;-68
2022/08/14 09:18:16;;;;;;;8.65;7.75;;;27.30;99.90;;;;;;5045899;28;20040;-68
2022/08/14 09:20:47;;;;;;;10.20;8.15;;;27.30;99.90;;;;;;5040965;28;20359;-69
2022/08/14 09:23:13;;;;;;;9.03;8.13;;;27.40;99.90;;;;;;5048368;28;20037;-68
2022/08/14 09:25:42;;;;;;;13.70;9.02;;;27.40;99.90;;;;;;5046982;28;20045;-68
2022/08/14 09:28:09;;;;;;;9.95;8.00;;;27.50;99.90;;;;;;5043120;28;20045;-68
2022/08/14 09:30:43;;;;;;;8.93;8.05;;;27.50;99.90;;;;;;5059603;28;20489;-69
2022/08/14 09:33:27;;;;;;;8.32;7.60;;;27.60;99.90;;;;;;5047477;28;20405;-67
2022/08/14 09:36:28;;;;;;;9.23;7.82;;;27.70;99.90;;;;;;5052832;28;20056;-69
2022/08/14 09:39:11;;;;;;;11.82;8.13;;;27.70;99.90;;;;;;5045309;28;20045;-71
2022/08/14 09:42:02;;;;;;;9.10;7.43;;;27.80;99.90;;;;;;5046649;28;20107;-69
2022/08/14 09:44:54;;;;;;;8.77;7.88;;;27.80;99.90;;;;;;5048155;28;20045;-70
2022/08/14 09:47:20;;;;;;;8.57;7.72;;;27.90;99.90;;;;;;5044045;28;20091;-68
2022/08/14 09:49:48;;;;;;;8.85;7.95;;;27.90;99.90;;;;;;5041853;28;20040;-69
2022/08/14 09:52:15;;;;;;;8.85;7.95;;;28.00;99.90;;;;;;5056392;28;20044;-69
2022/08/14 09:54:43;;;;;;;8.23;7.53;;;28.10;99.90;;;;;;5043553;28;20124;-69
2022/08/14 09:57:24;;;;;;;8.65;7.80;;;28.10;99.90;;;;;;5043479;28;20029;-69
2022/08/14 09:59:50;;;;;;;10.85;7.78;;;28.10;99.90;;;;;;5042444;28;20034;-69
2022/08/14 10:02:26;;;;;;;9.48;7.80;;;28.20;99.90;;;;;;5042364;28;20099;-69
2022/08/14 10:05:10;;;;;;;9.55;8.45;;;28.20;99.90;;;;;;5043050;28;20152;-69
2022/08/14 10:07:51;;;;;;;9.40;8.35;;;28.30;99.90;;;;;;5038303;28;20116;-70
2022/08/14 10:10:36;;;;;;;9.25;8.15;;;28.30;99.90;;;;;;5042872;28;20697;-69
2022/08/14 10:13:07;;;;;;;9.38;8.48;;;28.40;99.90;;;;;;5041513;28;20029;-69
2022/08/14 10:15:44;;;;;;;8.50;7.75;;;28.40;99.90;;;;;;5039279;28;20114;-70
2022/08/14 10:18:12;;;;;;;9.43;8.50;;;28.40;99.90;;;;;;5046621;28;20041;-69
2022/08/14 10:20:50;;;;;;;9.25;8.32;;;28.50;99.90;;;;;;5046159;28;20041;-70
2022/08/14 10:23:19;;;;;;;12.25;7.50;;;28.60;99.90;;;;;;5044210;28;20044;-69
2022/08/14 10:25:49;;;;;;;9.38;7.75;;;28.60;99.90;;;;;;5047381;28;20087;-69
2022/08/14 10:28:17;;;;;;;8.73;7.82;;;28.60;99.90;;;;;;5046167;28;20459;-69
2022/08/14 10:30:47;;;;;;;10.10;7.90;;;28.70;99.90;;;;;;5046670;28;20052;-70
2022/08/14 10:33:42;;;;;;;9.00;7.82;;;28.60;99.90;;;;;;5046879;28;20056;-70
2022/08/14 10:36:08;;;;;;;9.30;8.18;;;28.70;99.90;;;;;;5037314;28;20049;-69
2022/08/14 10:38:35;;;;;;;8.85;7.95;;;28.70;99.90;;;;;;5047911;28;20059;-70
2022/08/14 10:41:16;;;;;;;8.60;7.80;;;28.70;99.90;;;;;;5046552;28;20040;-68
2022/08/14 10:43:44;;;;;;;9.70;8.38;;;28.80;99.90;;;;;;5046783;28;20044;-69
2022/08/14 10:46:15;;;;;;;9.25;8.35;;;28.80;99.90;;;;;;5047105;28;20037;-70
2022/08/14 10:48:54;;;;;;;8.55;7.78;;;28.80;99.90;;;;;;5046352;28;20063;-69
2022/08/14 10:51:27;;;;;;;10.90;7.57;;;28.80;99.90;;;;;;5062537;28;20065;-70
2022/08/14 10:53:54;;;;;;;11.27;7.65;;;28.80;99.90;;;;;;5045447;28;20041;-69
2022/08/14 10:56:32;;;;;;;8.18;7.47;;;28.90;99.90;;;;;;5044763;28;20043;-69
2022/08/14 10:59:07;;;;;;;8.65;7.85;;;28.90;99.30;;;;;;5046418;28;20033;-70
2022/08/14 11:01:37;;;;;;;8.45;7.50;;;28.90;99.30;;;;;;5040231;28;20033;-70
2022/08/14 11:04:03;;;;;;;8.82;7.82;;;28.90;99.60;;;;;;5047652;28;20046;-70
2022/08/14 11:06:30;;;;;;;8.02;7.20;;;28.90;99.70;;;;;;5045164;28;20040;-69
2022/08/14 11:08:56;;;;;;;8.18;7.38;;;28.90;98.80;;;;;;5056775;28;20480;-69
2022/08/14 11:11:25;;;;;;;10.32;8.02;;;28.90;98.80;;;;;;5059237;28;20259;-70
2022/08/14 11:13:56;;;;;;;10.80;7.55;;;29.00;99.30;;;;;;5046273;28;20041;-70
2022/08/14 11:16:23;;;;;;;9.13;7.45;;;29.00;99.40;;;;;;5045552;28;20049;-69
2022/08/14 11:18:49;;;;;;;8.45;7.43;;;29.00;99.00;;;;;;5046738;28;20164;-69
2022/08/14 11:21:17;;;;;;;7.72;7.03;;;29.00;99.10;;;;;;5044363;28;20051;-69
2022/08/14 11:23:45;;;;;;;7.80;7.00;;;29.10;99.20;;;;;;5060638;28;20041;-69
2022/08/14 11:26:12;;;;;;;8.77;7.40;;;29.10;98.90;;;;;;5058841;28;20049;-69
2022/08/14 11:28:40;;;;;;;8.68;7.38;;;29.20;98.80;;;;;;5040573;28;20392;-69
2022/08/14 11:31:12;;;;;;;7.15;6.53;;;29.10;98.00;;;;;;5047634;28;20059;-71
2022/08/14 11:33:39;;;;;;;7.47;6.78;;;29.20;98.40;;;;;;5046498;28;20151;-70
2022/08/14 11:36:08;;;;;;;7.93;7.05;;;29.20;98.20;;;;;;5045841;28;20119;-70
2022/08/14 11:38:39;;;;;;;7.78;6.97;;;29.30;98.40;;;;;;5046989;28;20033;-70
2022/08/14 11:41:06;;;;;;;10.63;7.00;;;29.30;97.90;;;;;;5045803;28;20048;-69
2022/08/14 11:43:36;;;;;;;7.57;6.72;;;29.30;98.30;;;;;;5041334;28;20437;-69
2022/08/14 11:46:02;;;;;;;8.20;7.37;;;29.30;98.20;;;;;;5045144;28;20072;-70
2022/08/14 11:48:28;;;;;;;8.43;7.60;;;29.40;97.90;;;;;;5045967;28;20132;-70
2022/08/14 11:50:54;;;;;;;9.13;7.50;;;29.40;97.90;;;;;;5060289;28;20045;-70
2022/08/14 11:53:29;;;;;;;8.93;6.88;;;29.30;97.20;;;;;;5061889;28;20032;-69
2022/08/14 11:55:57;;;;;;;7.97;7.18;;;29.40;97.20;;;;;;5045960;28;21454;-70
2022/08/14 11:58:29;;;;;;;8.10;7.30;;;29.50;97.50;;;;;;5040737;28;20571;-71
2022/08/14 12:01:01;;;;;;;7.45;6.75;;;29.50;97.80;;;;;;5045784;28;20037;-70
2022/08/14 12:03:41;;;;;;;7.88;6.97;;;29.50;96.90;;;;;;5059453;28;20495;-70
2022/08/14 12:06:12;;;;;;;8.00;6.78;;;29.60;96.50;;;;;;5045972;28;20124;-70
2022/08/14 12:08:39;;;;;;;8.88;7.07;;;29.60;96.60;;;;;;5046640;28;20044;-70
2022/08/14 12:11:06;;;;;;;7.85;7.05;;;29.70;95.50;;;;;;5045041;28;20045;-70
2022/08/14 12:13:33;;;;;;;7.90;7.10;;;29.70;95.60;;;;;;5040463;28;20033;-70
2022/08/14 12:16:06;;;;;;;8.15;7.45;;;29.70;96.10;;;;;;5032626;28;20045;-69
2022/08/14 12:18:37;;;;;;;7.90;7.13;;;29.70;96.50;;;;;;5031917;28;20443;-69
2022/08/14 12:21:21;;;;;;;8.18;7.20;;;29.70;96.20;;;;;;5038735;28;20095;-70
2022/08/14 12:24:00;;;;;;;7.85;7.15;;;29.80;96.30;;;;;;5038327;28;20135;-69
2022/08/14 12:26:26;;;;;;;9.10;6.93;;;29.80;96.10;;;;;;5047241;28;20041;-69
2022/08/14 12:29:10;;;;;;;7.60;6.63;;;29.80;96.40;;;;;;5035706;28;20717;-70
2022/08/14 12:31:37;;;;;;;7.65;6.57;;;29.80;96.60;;;;;;5051310;28;20070;-70
2022/08/14 12:34:07;;;;;;;10.10;7.03;;;29.90;96.70;;;;;;5037290;28;20488;-70
2022/08/14 12:36:34;;;;;;;7.78;6.97;;;29.90;96.40;;;;;;5035499;28;20041;-70
2022/08/14 12:39:03;;;;;;;7.38;6.78;;;29.90;95.60;;;;;;5038816;28;20042;-70
2022/08/14 12:41:34;;;;;;;7.53;6.72;;;29.90;95.30;;;;;;5036541;28;20441;-71
2022/08/14 12:44:02;;;;;;;10.68;7.35;;;29.90;95.50;;;;;;5043464;28;20701;-70
2022/08/14 12:46:35;;;;;;;8.50;7.25;;;30.00;95.50;;;;;;5041962;28;20045;-68
2022/08/14 12:49:07;;;;;;;7.70;7.00;;;30.00;95.20;;;;;;5042233;28;20491;-68
2022/08/14 12:51:34;;;;;;;7.70;7.00;;;30.10;95.90;;;;;;5043205;28;20045;-69
2022/08/14 12:54:10;;;;;;;7.95;7.15;;;30.10;95.90;;;;;;5045712;28;20442;-70
2022/08/14 12:56:35;;;;;;;7.60;6.90;;;30.20;96.00;;;;;;5041369;28;20040;-70